Time;durP1;ratioP1;P1;durP2;ratioP2;P2;SDS_P1;SDS_P2;PMS_P1;PMS_P2;Temp;Humidity;BMP_temperature;BMP_pressure;BME280_temperature;BME280_humidity;BME280_pressure;Samples;Min_cycle;Max_cycle;Signal;HPM_P1;HPM_P2
2023/10/13 00:02:05;;;;;;;13.83;11.77;;;;;;;13.94;100.00;97074.91;5030913;28;20246;-59
2023/10/13 00:04:35;;;;;;;12.10;11.00;;;;;;;13.97;100.00;97077.16;5034893;28;20211;-57
2023/10/13 00:07:04;;;;;;;12.20;10.13;;;;;;;14.00;100.00;97087.41;5024705;28;20702;-57
2023/10/13 00:09:33;;;;;;;11.63;10.63;;;;;;;13.98;100.00;97084.13;5031153;28;20200;-56
2023/10/13 00:12:00;;;;;;;12.43;11.33;;;;;;;14.01;100.00;97083.69;5031792;28;20273;-57
2023/10/13 00:14:33;;;;;;;11.90;10.50;;;;;;;13.98;100.00;97078.78;5034925;28;20260;-60
2023/10/13 00:17:03;;;;;;;11.47;10.27;;;;;;;14.01;100.00;97073.06;4987383;28;20306;-55
2023/10/13 00:19:38;;;;;;;11.60;10.70;;;;;;;13.99;100.00;97080.44;5033703;28;20231;-58
2023/10/13 00:22:10;;;;;;;11.00;9.80;;;;;;;14.04;100.00;97075.28;5032731;28;20223;-57
2023/10/13 00:24:43;;;;;;;10.57;9.63;;;;;;;14.02;100.00;97080.00;5032460;28;20200;-57
2023/10/13 00:30:20;;;;;;;11.30;10.20;;;;;;;14.01;100.00;97081.03;5015098;28;20289;-57
2023/10/13 00:32:54;;;;;;;11.73;10.47;;;;;;;14.01;100.00;97071.19;5003683;28;20212;-55
2023/10/13 00:35:28;;;;;;;10.50;9.60;;;;;;;14.02;100.00;97072.84;5036494;28;20298;-59
2023/10/13 00:37:56;;;;;;;11.20;10.17;;;;;;;14.03;100.00;97063.84;5035797;28;20270;-57
2023/10/13 00:45:56;;;;;;;12.10;10.90;;;;;;;13.95;100.00;97056.03;5033086;28;20282;-59
2023/10/13 00:48:29;;;;;;;13.13;10.87;;;;;;;13.95;100.00;97058.72;5030418;28;20314;-57
2023/10/13 00:51:04;;;;;;;11.43;10.43;;;;;;;13.97;100.00;97061.97;5004355;28;20574;-59
2023/10/13 00:53:33;;;;;;;11.07;9.87;;;;;;;14.00;100.00;97060.75;5037285;28;20211;-58
2023/10/13 00:56:06;;;;;;;11.47;10.47;;;;;;;14.01;100.00;97060.53;5039836;28;20204;-58
2023/10/13 00:58:33;;;;;;;11.43;9.57;;;;;;;13.99;100.00;97067.13;5038940;28;20258;-59
2023/10/13 01:03:49;;;;;;;11.07;10.00;;;;;;;13.93;100.00;97054.63;4968311;28;22196;-57
2023/10/13 01:06:17;;;;;;;13.03;10.00;;;;;;;13.99;100.00;97059.94;5005836;28;20582;-57
2023/10/13 01:08:50;;;;;;;12.23;10.13;;;;;;;13.90;100.00;97055.84;5023763;28;20230;-56
2023/10/13 01:11:18;;;;;;;10.63;9.77;;;;;;;13.95;100.00;97063.22;5024951;28;20793;-57
2023/10/13 01:13:50;;;;;;;11.60;10.40;;;;;;;13.95;100.00;97065.91;5032487;28;20304;-59
2023/10/13 01:16:23;;;;;;;13.53;9.67;;;;;;;13.94;100.00;97061.59;5032302;28;20222;-57
2023/10/13 01:18:51;;;;;;;11.63;10.50;;;;;;;13.87;100.00;97053.63;5031344;28;20219;-57
2023/10/13 01:21:20;;;;;;;11.57;10.47;;;;;;;13.87;100.00;97057.09;5035891;28;20235;-57
2023/10/13 01:23:50;;;;;;;11.00;10.00;;;;;;;13.82;100.00;97045.44;4995378;28;20229;-59
2023/10/13 01:26:23;;;;;;;12.50;11.30;;;;;;;13.81;100.00;97041.94;5028670;28;20208;-55
2023/10/13 01:28:54;;;;;;;10.67;9.77;;;;;;;13.76;100.00;97039.09;5033148;28;20233;-57
2023/10/13 01:31:28;;;;;;;11.17;10.07;;;;;;;13.71;100.00;97038.91;5037774;28;20643;-55
2023/10/13 01:33:58;;;;;;;12.53;10.60;;;;;;;13.63;100.00;97036.44;4949156;28;20219;-57
2023/10/13 01:36:27;;;;;;;12.07;10.50;;;;;;;13.64;100.00;97043.41;5030905;28;20311;-58
2023/10/13 01:38:56;;;;;;;13.00;11.13;;;;;;;13.52;100.00;97043.22;5033575;28;20977;-58
2023/10/13 01:41:22;;;;;;;11.17;10.10;;;;;;;13.43;100.00;97051.41;5035176;28;20235;-58
2023/10/13 01:43:50;;;;;;;11.93;10.73;;;;;;;13.44;100.00;97060.22;5032054;28;20903;-60
2023/10/13 01:46:19;;;;;;;13.07;11.77;;;;;;;13.55;100.00;97062.28;5037893;28;20227;-55
2023/10/13 01:48:47;;;;;;;11.97;10.97;;;;;;;13.55;100.00;97054.28;5035808;28;20211;-58
2023/10/13 01:51:14;;;;;;;17.40;12.80;;;;;;;13.57;100.00;97041.59;5034893;28;20297;-54
2023/10/13 01:53:42;;;;;;;12.37;11.00;;;;;;;13.59;100.00;97034.22;5033935;28;20216;-60
2023/10/13 01:56:11;;;;;;;13.47;12.17;;;;;;;13.54;100.00;97047.31;5036798;28;20645;-54
2023/10/13 01:58:42;;;;;;;13.50;12.07;;;;;;;13.51;100.00;97052.22;5015037;28;20280;-59
2023/10/13 02:01:10;;;;;;;12.63;11.30;;;;;;;13.42;100.00;97054.25;5020900;28;20354;-56
2023/10/13 02:03:45;;;;;;;12.03;11.03;;;;;;;13.34;100.00;97051.78;4987363;28;20212;-58
2023/10/13 02:06:17;;;;;;;12.33;11.17;;;;;;;13.47;100.00;97062.47;5004383;28;20228;-56
2023/10/13 02:08:46;;;;;;;12.93;11.83;;;;;;;13.47;100.00;97062.47;5030738;28;20218;-58
2023/10/13 02:11:18;;;;;;;13.13;12.00;;;;;;;13.49;100.00;97068.41;5033343;28;20211;-57
2023/10/13 02:13:48;;;;;;;16.40;12.77;;;;;;;13.50;100.00;97059.41;5031695;28;20302;-59
2023/10/13 02:16:21;;;;;;;15.67;12.53;;;;;;;13.50;100.00;97047.94;5032451;28;20228;-57
2023/10/13 02:18:52;;;;;;;13.47;12.07;;;;;;;13.56;100.00;97053.25;5032533;28;20220;-58
2023/10/13 02:21:19;;;;;;;13.30;12.03;;;;;;;13.50;100.00;97051.44;5036233;28;20231;-58
2023/10/13 02:23:59;;;;;;;12.80;11.60;;;;;;;13.44;100.00;97049.56;5027502;28;20223;-58
2023/10/13 02:26:30;;;;;;;13.17;11.87;;;;;;;13.40;100.00;97050.97;5033741;28;20757;-56
2023/10/13 02:29:01;;;;;;;11.67;10.43;;;;;;;13.33;100.00;97045.66;5031530;28;20216;-59
2023/10/13 02:31:28;;;;;;;12.67;11.47;;;;;;;13.36;100.00;97031.13;4978007;28;20204;-56
2023/10/13 02:33:55;;;;;;;13.07;11.53;;;;;;;13.36;100.00;97036.44;5031092;28;20203;-58
2023/10/13 02:36:23;;;;;;;12.93;11.63;;;;;;;13.30;100.00;97036.25;4938655;28;20207;-58
2023/10/13 02:38:51;;;;;;;12.77;11.33;;;;;;;13.29;100.00;97033.81;5035177;28;20316;-61
2023/10/13 02:41:25;;;;;;;12.83;11.67;;;;;;;13.27;100.00;97041.97;5030909;28;20322;-58
2023/10/13 02:43:55;;;;;;;13.20;11.47;;;;;;;13.25;100.00;97044.03;5035626;28;20314;-63
2023/10/13 02:46:22;;;;;;;11.87;10.77;;;;;;;13.20;100.00;97040.31;5031440;28;20228;-59
2023/10/13 02:48:53;;;;;;;13.10;11.90;;;;;;;13.21;100.00;97045.47;5038259;28;20234;-57
2023/10/13 02:51:25;;;;;;;13.57;11.43;;;;;;;13.18;100.00;97036.03;5030587;28;20691;-58
2023/10/13 02:53:53;;;;;;;13.20;11.80;;;;;;;13.14;100.00;97036.66;5034561;28;20290;-58
2023/10/13 02:56:20;;;;;;;12.07;11.07;;;;;;;13.10;100.00;97038.91;5028355;28;20712;-58
2023/10/13 02:58:53;;;;;;;14.10;12.63;;;;;;;13.09;100.00;97039.91;5033158;28;20349;-58
2023/10/13 03:01:26;;;;;;;13.77;12.47;;;;;;;13.14;100.00;97036.66;4987410;28;20219;-58
2023/10/13 03:03:58;;;;;;;14.53;13.00;;;;;;;13.12;100.00;97030.72;5035905;28;20564;-59
2023/10/13 03:06:32;;;;;;;14.37;13.00;;;;;;;13.16;100.00;97034.63;5030194;28;20306;-59
2023/10/13 03:09:14;;;;;;;13.47;12.07;;;;;;;13.12;100.00;97033.38;5033538;28;20571;-59
2023/10/13 03:11:42;;;;;;;13.60;12.20;;;;;;;13.14;100.00;97034.00;4890327;28;20837;-60
2023/10/13 03:14:23;;;;;;;12.90;11.67;;;;;;;13.15;100.00;97038.28;4960779;28;20204;-60
2023/10/13 03:16:53;;;;;;;13.13;11.90;;;;;;;13.12;100.00;97030.72;5033245;28;20210;-60
2023/10/13 03:19:21;;;;;;;12.87;11.67;;;;;;;13.08;100.00;97026.84;5027350;28;20634;-60
2023/10/13 03:21:54;;;;;;;13.57;12.27;;;;;;;13.03;100.00;97036.22;5034683;28;20618;-60
2023/10/13 03:24:33;;;;;;;14.60;13.10;;;;;;;13.06;100.00;97036.84;5028951;28;20204;-60
2023/10/13 03:27:08;;;;;;;12.27;11.33;;;;;;;13.01;100.00;97037.47;5031187;28;20208;-57
2023/10/13 03:29:36;;;;;;;13.33;11.77;;;;;;;12.99;100.00;97035.00;5031853;28;20687;-60
2023/10/13 03:32:11;;;;;;;14.83;12.30;;;;;;;12.90;100.00;97038.88;5032198;28;20212;-59
2023/10/13 03:34:49;;;;;;;12.57;11.13;;;;;;;12.88;100.00;97032.94;5030714;28;20207;-56
2023/10/13 03:37:35;;;;;;;12.37;11.30;;;;;;;12.82;100.00;97025.78;5027640;28;20255;-59
2023/10/13 03:40:06;;;;;;;13.17;11.90;;;;;;;12.83;100.00;97024.75;5032599;28;20315;-57
2023/10/13 03:42:34;;;;;;;15.23;13.87;;;;;;;12.87;100.00;97028.66;4921653;28;20207;-55
2023/10/13 03:45:02;;;;;;;13.53;12.03;;;;;;;12.82;100.00;97018.59;5040855;28;20630;-53
2023/10/13 03:47:32;;;;;;;13.77;12.13;;;;;;;12.90;100.00;97012.28;5031551;28;20254;-57
2023/10/13 03:52:41;;;;;;;14.47;13.07;;;;;;;12.90;100.00;97014.94;5032393;28;20261;-59
2023/10/13 03:55:17;;;;;;;13.13;11.93;;;;;;;12.84;100.00;97013.09;5031442;28;20207;-55
2023/10/13 03:57:46;;;;;;;12.50;11.20;;;;;;;12.84;100.00;97007.78;4972628;28;20223;-56
2023/10/13 04:00:26;;;;;;;14.30;13.00;;;;;;;12.85;100.00;97010.22;5037118;28;20381;-58
2023/10/13 04:03:08;;;;;;;13.73;12.23;;;;;;;12.83;100.00;97009.59;5030819;28;20211;-56
2023/10/13 04:05:44;;;;;;;12.43;11.33;;;;;;;12.85;100.00;97006.75;5034921;28;20203;-58
2023/10/13 04:16:50;;;;;;;12.63;11.43;;;;;;;12.57;100.00;97005.91;4960351;28;21405;-58
2023/10/13 04:19:26;;;;;;;14.80;10.97;;;;;;;12.40;100.00;97007.28;5032510;28;20695;-58
2023/10/13 04:21:58;;;;;;;13.40;10.97;;;;;;;12.44;100.00;96998.72;5031327;28;20798;-56
2023/10/13 04:30:11;;;;;;;12.87;11.57;;;;;;;12.37;100.00;96994.38;5037990;28;20227;-55
2023/10/13 04:32:47;;;;;;;15.53;11.67;;;;;;;12.32;100.00;96996.84;4976269;28;20719;-58
2023/10/13 04:35:24;;;;;;;13.50;12.20;;;;;;;12.26;100.00;96996.63;5038440;28;20207;-57
2023/10/13 04:37:54;;;;;;;13.80;12.33;;;;;;;12.30;100.00;96997.84;5030985;28;20288;-57
2023/10/13 04:40:24;;;;;;;14.23;12.80;;;;;;;12.28;100.00;96993.75;5037195;28;20335;-60
2023/10/13 04:42:53;;;;;;;12.23;11.13;;;;;;;12.29;100.00;96992.72;5035359;28;20207;-57
2023/10/13 04:48:27;;;;;;;13.63;12.33;;;;;;;12.19;100.00;97002.91;4924172;28;20223;-57
2023/10/13 04:54:04;;;;;;;14.00;12.03;;;;;;;12.07;100.00;97000.84;5032954;28;20218;-59
2023/10/13 04:59:35;;;;;;;13.47;12.07;;;;;;;11.95;100.00;96997.88;5035061;28;20750;-55
2023/10/13 05:05:21;;;;;;;13.77;12.20;;;;;;;12.01;100.00;97004.28;5037140;28;20273;-58
2023/10/13 05:46:59;;;;;;;15.23;13.73;;;;;;;12.03;100.00;97015.53;5018798;28;20675;-60
2023/10/13 05:49:49;;;;;;;15.40;13.87;;;;;;;12.09;100.00;97021.88;5023988;28;20805;-57
2023/10/13 06:28:40;;;;;;;14.73;13.30;;;;;;;12.16;100.00;97023.53;4924887;28;20967;-59
2023/10/13 06:31:01;;;;;;;14.67;12.37;;;;;;;12.64;100.00;97026.34;5033141;28;20208;-55
2023/10/13 06:33:29;;;;;;;14.17;12.40;;;;;;;12.66;100.00;97035.75;4995787;28;20196;-57
2023/10/13 06:35:58;;;;;;;16.03;13.17;;;;;;;12.57;100.00;97024.50;5035465;28;20211;-58
2023/10/13 06:38:30;;;;;;;13.60;12.20;;;;;;;12.64;100.00;97032.47;5032982;28;20246;-58
2023/10/13 06:40:58;;;;;;;14.30;12.97;;;;;;;12.63;100.00;97030.84;5034140;28;20274;-57
2023/10/13 06:43:32;;;;;;;14.60;13.20;;;;;;;12.68;100.00;97038.22;5032607;28;20698;-57
2023/10/13 06:46:03;;;;;;;15.33;13.80;;;;;;;12.65;100.00;97030.66;5036461;28;20720;-55
2023/10/13 06:48:33;;;;;;;14.07;12.67;;;;;;;12.68;100.00;97030.25;5032277;28;20246;-57
2023/10/13 06:51:06;;;;;;;15.60;13.67;;;;;;;12.83;100.00;97028.22;5035871;28;20224;-58
2023/10/13 06:53:37;;;;;;;13.70;12.30;;;;;;;12.91;100.00;97027.22;5029753;28;20736;-56
2023/10/13 06:56:09;;;;;;;14.10;12.80;;;;;;;12.88;100.00;97027.63;5036399;28;20223;-57
2023/10/13 06:58:39;;;;;;;15.43;13.83;;;;;;;12.92;100.00;97030.72;4924523;28;20306;-58
2023/10/13 07:01:14;;;;;;;14.30;12.90;;;;;;;13.08;100.00;97027.63;5031761;28;20216;-57
2023/10/13 07:03:43;;;;;;;16.93;14.13;;;;;;;13.21;100.00;97026.00;4992971;28;20634;-57
2023/10/13 07:06:17;;;;;;;14.07;12.77;;;;;;;13.43;100.00;97031.97;5035401;28;20762;-56
2023/10/13 07:08:51;;;;;;;15.73;14.07;;;;;;;13.48;100.00;97018.03;5028196;28;20340;-57
2023/10/13 07:11:32;;;;;;;14.90;13.40;;;;;;;13.59;100.00;97012.06;5036734;28;20207;-56
2023/10/13 07:14:09;;;;;;;14.87;13.50;;;;;;;13.59;100.00;97022.72;5030889;28;20204;-59
2023/10/13 07:16:46;;;;;;;14.27;13.00;;;;;;;13.66;100.00;97017.41;5034842;28;20203;-59
2023/10/13 07:19:17;;;;;;;14.10;12.73;;;;;;;13.76;100.00;97025.78;5031837;28;20228;-56
2023/10/13 07:21:48;;;;;;;14.40;12.90;;;;;;;13.78;100.00;97017.59;5030876;28;20218;-60
2023/10/13 07:24:15;;;;;;;14.53;13.13;;;;;;;13.63;100.00;97017.81;5032227;28;20769;-58
2023/10/13 07:26:45;;;;;;;12.70;11.60;;;;;;;13.71;100.00;97009.59;5033453;28;20215;-57
2023/10/13 07:29:14;;;;;;;14.13;12.40;;;;;;;13.68;100.00;97010.84;5033672;28;20220;-57
2023/10/13 07:31:45;;;;;;;17.70;12.53;;;;;;;13.67;100.00;97001.22;5000713;28;20204;-59
2023/10/13 07:34:24;;;;;;;13.60;12.23;;;;;;;13.80;100.00;97003.03;4979746;28;20207;-60
2023/10/13 07:36:59;;;;;;;13.63;12.30;;;;;;;14.04;100.00;97000.72;5022900;28;20199;-59
2023/10/13 07:39:33;;;;;;;13.03;11.73;;;;;;;14.13;100.00;97004.75;5018619;28;20234;-58
2023/10/13 07:42:05;;;;;;;13.50;12.10;;;;;;;14.39;100.00;97003.00;5029042;28;20224;-57
2023/10/13 07:44:34;;;;;;;14.57;11.10;;;;;;;14.50;100.00;96998.03;5036817;28;20192;-54
2023/10/13 07:47:07;;;;;;;13.50;12.17;;;;;;;14.69;100.00;96996.28;5032601;28;20336;-61
2023/10/13 07:49:37;;;;;;;12.03;10.93;;;;;;;14.80;100.00;96995.66;5030721;28;20211;-58
2023/10/13 07:52:23;;;;;;;12.27;10.63;;;;;;;14.95;100.00;96992.63;5033720;28;20321;-60
2023/10/13 07:54:59;;;;;;;11.53;10.50;;;;;;;15.12;100.00;96984.91;5036421;28;20204;-59
2023/10/13 07:57:30;;;;;;;12.27;10.80;;;;;;;15.19;100.00;96982.19;4996785;28;20235;-56
2023/10/13 08:00:08;;;;;;;12.50;11.30;;;;;;;15.22;100.00;96983.63;5038032;28;20559;-57
2023/10/13 08:02:49;;;;;;;10.60;9.70;;;;;;;15.40;100.00;96982.84;5035511;28;20278;-59
2023/10/13 08:05:24;;;;;;;11.23;9.17;;;;;;;15.60;100.00;96982.66;5035882;28;20207;-60
2023/10/13 08:07:53;;;;;;;11.57;9.87;;;;;;;15.60;100.00;96978.13;4927632;28;20249;-58
2023/10/13 08:10:25;;;;;;;11.10;9.93;;;;;;;15.81;100.00;96962.72;5043774;28;20200;-62
2023/10/13 08:12:54;;;;;;;12.97;9.50;;;;;;;15.99;100.00;96961.09;5031109;28;20220;-57
2023/10/13 08:15:31;;;;;;;10.23;9.23;;;;;;;15.97;100.00;96965.84;5038289;28;20206;-59
2023/10/13 08:18:06;;;;;;;9.03;8.17;;;;;;;16.02;100.00;96966.81;5029390;28;20310;-56
2023/10/13 08:20:38;;;;;;;9.13;8.43;;;;;;;16.16;100.00;96972.81;5037951;28;20221;-61
2023/10/13 08:23:14;;;;;;;9.20;8.30;;;;;;;16.24;100.00;96968.19;5034379;28;20224;-56
2023/10/13 08:28:54;;;;;;;11.27;8.00;;;;;;;16.26;100.00;96966.91;5036085;28;20310;-57
2023/10/13 08:31:26;;;;;;;9.77;8.67;;;;;;;16.35;100.00;96964.75;5038827;28;20611;-57
2023/10/13 08:34:05;;;;;;;9.23;8.33;;;;;;;16.42;100.00;96968.13;5033930;28;20204;-60
2023/10/13 08:36:37;;;;;;;10.17;7.40;;;;;;;16.52;100.00;96961.44;5039678;28;20574;-57
2023/10/13 08:39:57;;;;;;;8.90;7.87;;;;;;;16.51;100.00;96962.50;5035049;28;20235;-61
2023/10/13 08:42:11;;;;;;;8.87;8.07;;;;;;;16.68;100.00;96970.69;4956982;28;21565;-59
2023/10/13 08:44:45;;;;;;;9.77;7.80;;;;;;;16.67;100.00;96958.31;5030400;28;20219;-58
2023/10/13 08:47:17;;;;;;;9.93;8.50;;;;;;;16.57;100.00;96972.28;5031243;28;20228;-60
2023/10/13 08:49:51;;;;;;;8.53;7.07;;;;;;;16.72;100.00;96967.31;5040585;28;20199;-56
2023/10/13 08:52:46;;;;;;;13.30;7.73;;;;;;;16.75;100.00;96961.50;5036508;28;20202;-55
2023/10/13 08:58:02;;;;;;;8.97;8.07;;;;;;;16.98;100.00;96961.78;5034600;28;20231;-57
2023/10/13 09:00:55;;;;;;;7.40;6.73;;;;;;;17.13;100.00;96961.34;5034866;28;20322;-56
2023/10/13 09:03:29;;;;;;;8.57;7.40;;;;;;;17.26;100.00;96968.34;5033826;28;20381;-58
2023/10/13 09:06:01;;;;;;;8.47;7.20;;;;;;;17.40;100.00;96968.94;5032449;28;20207;-60
2023/10/13 09:08:35;;;;;;;12.27;7.87;;;;;;;17.44;100.00;96967.41;5034692;28;20273;-59
2023/10/13 09:11:12;;;;;;;8.90;7.07;;;;;;;17.43;100.00;96957.75;5037306;28;20662;-59
2023/10/13 09:13:44;;;;;;;10.00;7.57;;;;;;;17.44;100.00;96957.53;4921146;28;20207;-57
2023/10/13 09:19:11;;;;;;;7.73;7.00;;;;;;;17.70;100.00;96958.06;5033740;28;20235;-56
2023/10/13 09:21:54;;;;;;;6.40;5.90;;;;;;;17.71;100.00;96954.34;5037615;28;20199;-57
2023/10/13 09:24:27;;;;;;;7.27;6.50;;;;;;;17.75;100.00;96950.13;5037206;28;20372;-54
2023/10/13 09:26:55;;;;;;;9.90;6.40;;;;;;;17.74;100.00;96956.53;5032358;28;20228;-60
2023/10/13 09:29:24;;;;;;;6.23;5.73;;;;;;;17.89;100.00;96955.25;5038721;28;20208;-57
2023/10/13 09:32:02;;;;;;;6.23;5.67;;;;;;;17.86;100.00;96953.06;5034712;28;20314;-59
2023/10/13 09:34:33;;;;;;;7.10;6.30;;;;;;;18.06;100.00;96950.00;5036814;28;20693;-58
2023/10/13 09:37:03;;;;;;;8.63;6.23;;;;;;;18.03;100.00;96950.47;5034482;28;20258;-57
2023/10/13 09:39:34;;;;;;;6.53;5.90;;;;;;;18.05;100.00;96940.31;5037653;28;20236;-59
2023/10/13 09:42:03;;;;;;;8.10;6.00;;;;;;;18.20;100.00;96937.13;4959543;28;21224;-60
2023/10/13 09:44:31;;;;;;;8.53;6.73;;;;;;;18.38;100.00;96944.16;5006260;28;20279;-60
2023/10/13 09:47:07;;;;;;;9.27;5.90;;;;;;;18.44;100.00;96939.69;5034361;28;20287;-60
2023/10/13 09:49:45;;;;;;;7.37;6.00;;;;;;;18.47;100.00;96940.03;5034411;28;20738;-58
2023/10/13 09:52:25;;;;;;;9.87;6.13;;;;;;;18.56;100.00;96947.69;5030406;28;20195;-59
2023/10/13 09:55:13;;;;;;;5.73;5.20;;;;;;;18.64;100.00;96940.06;5037293;28;20207;-58
2023/10/13 09:57:48;;;;;;;6.43;5.67;;;;;;;18.64;100.00;96936.56;5033871;28;20486;-58
2023/10/13 10:03:14;;;;;;;6.47;5.87;;;;;;;18.89;100.00;96936.16;5028895;28;20226;-59
2023/10/13 10:05:49;;;;;;;8.57;6.77;;;;;;;19.00;100.00;96931.81;5038393;28;20204;-60
2023/10/13 10:08:32;;;;;;;6.57;5.97;;;;;;;18.99;100.00;96924.81;5030556;28;20339;-59
2023/10/13 10:11:07;;;;;;;7.00;6.30;;;;;;;19.10;100.00;96923.09;5036172;28;20233;-60
2023/10/13 10:13:40;;;;;;;7.90;5.30;;;;;;;19.14;100.00;96918.88;5034651;28;20203;-61
2023/10/13 10:16:14;;;;;;;6.70;5.87;;;;;;;19.17;100.00;96920.25;5034505;28;20605;-58
2023/10/13 10:18:41;;;;;;;7.87;5.73;;;;;;;19.24;100.00;96910.16;4927975;28;20235;-58
2023/10/13 10:21:10;;;;;;;6.40;5.20;;;;;;;19.23;100.00;96911.22;5038279;28;20211;-56
2023/10/13 10:23:40;;;;;;;7.03;5.13;;;;;;;19.26;100.00;96910.72;5031416;28;20758;-57
2023/10/13 10:26:13;;;;;;;6.70;5.60;;;;;;;19.34;100.00;96914.88;5038084;28;20206;-58
2023/10/13 10:28:43;;;;;;;6.30;5.47;;;;;;;19.44;100.00;96900.75;5034930;28;20288;-59
2023/10/13 10:31:15;;;;;;;5.83;5.23;;;;;;;19.50;100.00;96903.25;5035757;28;20208;-58
2023/10/13 10:33:43;;;;;;;9.50;5.53;;;;;;;19.47;100.00;96901.06;5031386;28;20615;-60
2023/10/13 10:36:14;;;;;;;6.50;5.27;;;;;;;19.63;100.00;96902.09;5037873;28;20303;-60
2023/10/13 10:38:58;;;;;;;9.03;5.80;;;;;;;19.77;100.00;96899.00;5025673;28;20235;-61
2023/10/13 10:41:44;;;;;;;6.13;4.97;;;;;;;19.95;100.00;96896.03;5035573;28;20212;-59
2023/10/13 10:44:17;;;;;;;5.53;5.03;;;;;;;20.01;100.00;96894.22;5031083;28;20319;-57
2023/10/13 10:46:57;;;;;;;7.63;5.17;;;;;;;20.03;100.00;96891.28;5032810;28;20206;-60
2023/10/13 10:49:30;;;;;;;8.03;5.67;;;;;;;20.10;100.00;96886.50;5034198;28;20222;-59
2023/10/13 10:52:04;;;;;;;6.43;5.53;;;;;;;20.23;100.00;96885.31;4965391;28;20863;-56
2023/10/13 10:54:33;;;;;;;7.80;5.87;;;;;;;20.39;100.00;96886.28;5003344;28;20218;-57
2023/10/13 10:57:11;;;;;;;8.50;5.60;;;;;;;20.48;100.00;96873.97;5036734;28;20257;-59
2023/10/13 10:59:39;;;;;;;6.40;5.03;;;;;;;20.60;100.00;96865.72;5037889;28;20203;-57
2023/10/13 11:02:08;;;;;;;4.70;4.30;;;;;;;20.59;100.00;96866.81;5034408;28;20253;-60
2023/10/13 11:04:41;;;;;;;6.37;5.10;;;;;;;20.69;100.00;96860.69;5033634;28;20255;-59
2023/10/13 11:07:09;;;;;;;6.57;4.93;;;;;;;20.74;100.00;96858.03;5030616;28;20835;-56
2023/10/13 11:09:45;;;;;;;6.07;4.53;;;;;;;20.67;100.00;96850.19;5032013;28;20211;-57
2023/10/13 11:12:23;;;;;;;7.80;5.03;;;;;;;20.77;100.00;96849.44;5027661;28;20199;-58
2023/10/13 11:15:01;;;;;;;5.37;4.17;;;;;;;20.90;100.00;96844.72;5034468;28;20206;-58
2023/10/13 11:17:41;;;;;;;8.17;4.70;;;;;;;21.07;100.00;96836.47;5030503;28;20224;-57
2023/10/13 11:20:16;;;;;;;5.00;4.60;;;;;;;21.27;98.37;96837.66;5033955;28;20211;-56
2023/10/13 11:22:48;;;;;;;5.07;3.97;;;;;;;21.34;94.50;96836.34;5030284;28;20191;-59
2023/10/13 11:25:29;;;;;;;5.23;4.37;;;;;;;21.44;90.48;96840.97;5037472;28;20298;-58
2023/10/13 11:27:59;;;;;;;5.13;4.37;;;;;;;21.57;91.26;96836.97;4961723;28;20590;-58
2023/10/13 11:30:40;;;;;;;3.83;3.23;;;;;;;21.62;87.85;96831.59;5033855;28;20597;-61
2023/10/13 11:33:09;;;;;;;5.97;3.93;;;;;;;21.65;83.07;96824.91;5027822;28;20309;-59
2023/10/13 11:35:55;;;;;;;9.27;3.83;;;;;;;21.78;86.46;96824.41;5033251;28;20208;-61
2023/10/13 11:38:27;;;;;;;9.03;3.50;;;;;;;21.87;84.45;96816.63;5032878;28;20318;-57
2023/10/13 11:41:11;;;;;;;3.80;3.50;;;;;;;21.93;80.57;96814.72;4999135;28;20236;-59
2023/10/13 11:46:55;;;;;;;4.13;3.70;;;;;;;22.07;81.47;96817.72;4987495;28;20250;-59
2023/10/13 11:49:33;;;;;;;6.80;4.07;;;;;;;22.13;76.62;96808.56;5033797;28;20864;-58
2023/10/13 11:52:19;;;;;;;4.87;3.57;;;;;;;22.18;75.04;96796.97;5033339;28;20313;-60
2023/10/13 11:54:47;;;;;;;6.50;3.93;;;;;;;22.16;81.07;96788.34;5035694;28;20279;-59
2023/10/13 11:57:19;;;;;;;6.53;4.50;;;;;;;22.18;75.13;96787.00;4942882;28;20297;-58
2023/10/13 11:59:55;;;;;;;4.80;4.20;;;;;;;22.36;75.13;96782.13;5032086;28;20200;-57
2023/10/13 12:05:17;;;;;;;4.13;3.37;;;;;;;22.64;72.50;96780.00;5037789;28;20231;-55
2023/10/13 12:07:49;;;;;;;5.23;3.77;;;;;;;22.77;68.28;96782.13;5000290;28;20222;-57
2023/10/13 12:10:32;;;;;;;5.37;3.43;;;;;;;22.87;66.57;96777.78;5033535;28;20851;-57
2023/10/13 12:13:07;;;;;;;5.03;3.20;;;;;;;22.96;66.12;96768.84;5032992;28;20285;-57
2023/10/13 12:15:48;;;;;;;7.20;3.53;;;;;;;23.10;60.32;96763.69;4986591;28;20679;-57
2023/10/13 12:18:19;;;;;;;8.37;3.77;;;;;;;23.26;60.15;96769.03;5033696;28;20332;-59
2023/10/13 12:20:46;;;;;;;3.43;3.17;;;;;;;23.34;58.74;96762.25;5034310;28;20349;-60
2023/10/13 12:23:20;;;;;;;5.40;3.90;;;;;;;23.42;59.36;96757.09;5026600;28;20550;-60
2023/10/13 12:26:06;;;;;;;5.60;3.83;;;;;;;23.38;65.50;96749.81;4930224;28;20738;-55
2023/10/13 12:28:40;;;;;;;5.70;3.97;;;;;;;23.37;67.59;96751.72;5034823;28;20302;-56
2023/10/13 12:31:11;;;;;;;4.33;3.90;;;;;;;23.63;67.10;96745.38;4949998;28;20219;-58
2023/10/13 12:33:40;;;;;;;6.87;4.07;;;;;;;23.59;63.85;96738.91;5038400;28;20207;-60
2023/10/13 12:36:14;;;;;;;8.40;5.50;;;;;;;23.83;65.50;96737.09;5033244;28;20234;-56
2023/10/13 12:48:55;;;;;;;6.20;3.33;;;;;;;24.16;61.26;96735.81;5034891;28;20231;-56
2023/10/13 12:50:07;;;;;;;3.60;3.30;;;;;;;28.20;45.41;96738.44;5036624;28;20231;-60
2023/10/13 12:52:36;;;;;;;6.63;3.53;;;;;;;29.00;44.11;96726.84;5036182;28;20203;-60
2023/10/13 12:55:09;;;;;;;4.90;3.27;;;;;;;29.54;42.08;96714.16;5016089;28;20199;-60
2023/10/13 12:57:43;;;;;;;4.63;3.77;;;;;;;29.62;43.10;96710.63;5002827;28;20313;-58
2023/10/13 13:00:24;;;;;;;4.03;3.37;;;;;;;31.18;40.20;96709.81;5037107;28;20548;-56
2023/10/13 13:02:55;;;;;;;4.90;3.63;;;;;;;31.46;39.31;96708.53;5037608;28;20206;-58
2023/10/13 13:05:28;;;;;;;4.53;4.13;;;;;;;31.53;37.00;96706.06;4956037;28;20956;-57
2023/10/13 13:07:56;;;;;;;5.23;3.47;;;;;;;31.24;35.99;96695.94;5017225;28;20265;-59
2023/10/13 13:10:37;;;;;;;3.30;3.00;;;;;;;31.09;36.57;96703.59;4983429;28;20983;-59
2023/10/13 13:13:05;;;;;;;4.60;2.87;;;;;;;29.91;36.38;96695.53;5033615;28;20223;-58
2023/10/13 13:15:35;;;;;;;5.20;3.30;;;;;;;29.69;37.87;96678.19;5028800;28;20801;-56
2023/10/13 13:18:09;;;;;;;3.20;2.90;;;;;;;30.64;37.20;96682.25;5039283;28;20223;-56
2023/10/13 13:20:44;;;;;;;7.20;3.73;;;;;;;31.66;34.24;96676.84;4979648;28;20557;-60
2023/10/13 13:23:12;;;;;;;6.37;3.07;;;;;;;31.99;35.36;96676.06;5032970;28;20209;-59
2023/10/13 13:25:43;;;;;;;7.70;3.23;;;;;;;32.68;34.45;96680.34;4985887;28;20371;-59
2023/10/13 13:28:11;;;;;;;9.53;4.10;;;;;;;32.98;35.73;96671.94;5039226;28;20258;-58
2023/10/13 13:30:41;;;;;;;3.80;3.50;;;;;;;32.52;35.41;96670.06;5033949;28;20215;-59
2023/10/13 13:33:12;;;;;;;8.47;4.10;;;;;;;32.13;35.80;96664.03;5036446;28;20202;-61
2023/10/13 13:35:42;;;;;;;6.60;3.23;;;;;;;31.79;35.89;96652.25;5034151;28;20263;-58
2023/10/13 13:38:22;;;;;;;12.63;5.03;;;;;;;30.90;37.34;96650.13;5035965;28;20222;-61
2023/10/13 13:40:53;;;;;;;3.33;3.00;;;;;;;27.34;nan;96158.91;4945475;28;21608;-75
2023/10/13 13:43:37;;;;;;;6.03;4.10;;;;;;;28.70;nan;96685.66;5040481;28;20208;-71
2023/10/13 13:46:09;;;;;;;6.23;3.27;;;;;;;26.92;nan;96661.25;5031942;28;20207;-74
2023/10/13 13:48:38;;;;;;;5.93;4.60;;;;;;;26.38;nan;96646.22;5038463;28;20219;-75
2023/10/13 13:51:14;;;;;;;4.73;3.83;;;;;;;25.62;nan;96600.28;5039278;28;20208;-75
2023/10/13 13:53:45;;;;;;;6.20;4.00;;;;;;;25.19;nan;96631.00;5036377;28;20751;-75
2023/10/13 13:56:15;;;;;;;5.37;3.87;;;;;;;24.82;nan;96620.66;4996280;28;20269;-76
2023/10/13 13:58:44;;;;;;;7.20;3.60;;;;;;;24.61;nan;96630.88;5042530;28;20227;-74
2023/10/13 14:01:14;;;;;;;7.00;3.60;;;;;;;24.46;nan;96606.69;5001320;28;20274;-75
2023/10/13 14:03:50;;;;;;;6.53;3.50;;;;;;;24.21;nan;96616.69;5040615;28;20200;-75
2023/10/13 14:06:21;;;;;;;6.63;3.90;;;;;;;23.84;nan;96629.72;5037083;28;20207;-76
2023/10/13 14:08:50;;;;;;;8.83;4.10;;;;;;;23.72;nan;96621.19;5037782;28;20230;-76